Time;durP1;ratioP1;P1;durP2;ratioP2;P2;SDS_P1;SDS_P2;PMS_P1;PMS_P2;Temp;Humidity;BMP_temperature;BMP_pressure;BME280_temperature;BME280_humidity;BME280_pressure;Samples;Min_cycle;Max_cycle;Signal;HPM_P1;HPM_P2
2023/02/28 00:00:37;;;;;;;19.40;13.80;;;;;;;-0.57;100.00;100158.91;109474;1251;58971;-75
2023/02/28 00:03:17;;;;;;;22.30;14.80;;;;;;;-0.62;100.00;100154.73;109526;1251;58958;-74
2023/02/28 00:05:44;;;;;;;20.80;13.40;;;;;;;-0.67;100.00;100157.54;109563;1251;66990;-75
2023/02/28 00:08:11;;;;;;;22.90;14.50;;;;;;;-0.72;100.00;100158.77;109584;1250;60760;-75
2023/02/28 00:10:38;;;;;;;22.50;14.70;;;;;;;-0.75;100.00;100167.85;109488;1250;64082;-75
2023/02/28 00:13:06;;;;;;;23.80;15.40;;;;;;;-0.78;100.00;100169.60;109486;1251;58981;-75
2023/02/28 00:15:33;;;;;;;24.50;14.30;;;;;;;-0.80;100.00;100172.56;109552;1251;59265;-75
2023/02/28 00:18:00;;;;;;;19.70;13.10;;;;;;;-0.83;100.00;100171.52;109518;1251;67072;-75
2023/02/28 00:20:32;;;;;;;20.20;12.30;;;;;;;-0.86;100.00;100173.80;109369;1251;60569;-75
2023/02/28 00:22:59;;;;;;;19.70;11.80;;;;;;;-0.88;100.00;100176.08;109509;1251;64710;-75
2023/02/28 00:25:25;;;;;;;19.50;12.30;;;;;;;-0.91;100.00;100174.16;109501;1251;59151;-75
2023/02/28 00:27:52;;;;;;;17.90;11.80;;;;;;;-0.92;100.00;100180.62;108593;1251;1002428;-74
2023/02/28 00:30:21;;;;;;;21.00;12.80;;;;;;;-0.94;100.00;100186.90;109526;1251;59039;-74
2023/02/28 00:32:49;;;;;;;18.30;11.30;;;;;;;-0.96;100.00;100191.27;109516;1251;60752;-74
2023/02/28 00:35:16;;;;;;;18.60;11.60;;;;;;;-0.95;100.00;100191.09;109385;1251;64804;-74
2023/02/28 00:37:42;;;;;;;18.70;12.50;;;;;;;-0.95;100.00;100189.34;109528;1250;58976;-74
2023/02/28 00:40:11;;;;;;;18.30;12.60;;;;;;;-0.95;100.00;100186.91;109144;1251;59216;-75
2023/02/28 00:42:38;;;;;;;18.90;12.10;;;;;;;-0.94;100.00;100188.65;109321;1251;66031;-75
2023/02/28 00:45:05;;;;;;;16.60;12.80;;;;;;;-0.93;100.00;100191.27;109508;1251;68326;-75
2023/02/28 00:47:32;;;;;;;19.60;13.30;;;;;;;-0.94;100.00;100184.80;109339;1251;72664;-75
2023/02/28 00:49:59;;;;;;;19.00;12.90;;;;;;;-0.94;100.00;100184.81;109382;1253;59105;-75
2023/02/28 00:52:26;;;;;;;17.50;12.30;;;;;;;-0.94;100.00;100186.21;109556;1251;58943;-75
2023/02/28 00:54:52;;;;;;;17.00;12.10;;;;;;;-0.94;100.00;100189.00;109563;1250;74264;-75
2023/02/28 00:57:19;;;;;;;20.00;12.60;;;;;;;-0.93;100.00;100187.60;109553;1250;59933;-75
2023/02/28 00:59:46;;;;;;;18.20;12.90;;;;;;;-0.93;100.00;100190.39;109538;1251;64807;-74
2023/02/28 01:02:12;;;;;;;20.40;13.90;;;;;;;-0.94;100.00;100185.85;109521;1251;58858;-75
2023/02/28 01:04:39;;;;;;;19.70;13.80;;;;;;;-0.94;100.00;100178.88;108791;1250;1002947;-75
2023/02/28 01:07:06;;;;;;;23.20;14.30;;;;;;;-0.93;100.00;100176.61;109418;1251;67088;-75
2023/02/28 01:09:32;;;;;;;21.80;14.50;;;;;;;-0.93;100.00;100177.30;109431;1251;60712;-75
2023/02/28 01:11:59;;;;;;;21.60;15.40;;;;;;;-0.93;100.00;100178.88;109330;1251;63733;-75
2023/02/28 01:14:25;;;;;;;22.40;14.00;;;;;;;-0.92;100.00;100174.16;109227;1256;59199;-75
2023/02/28 01:16:52;;;;;;;22.20;14.50;;;;;;;-0.94;100.00;100168.23;109514;1251;60340;-76
2023/02/28 01:19:19;;;;;;;16.60;11.40;;;;;;;-0.94;100.00;100169.11;109420;1251;64906;-76
2023/02/28 01:21:45;;;;;;;17.00;11.40;;;;;;;-0.97;100.00;100171.91;109573;1251;60776;-75
2023/02/28 01:24:12;;;;;;;17.90;10.40;;;;;;;-0.99;100.00;100172.08;109539;1251;64777;-76
2023/02/28 01:26:39;;;;;;;17.90;11.30;;;;;;;-1.02;100.00;100171.21;108800;1253;1002996;-74
2023/02/28 01:29:05;;;;;;;17.00;11.20;;;;;;;-1.05;100.00;100170.86;108844;1251;1002936;-75
2023/02/28 01:31:32;;;;;;;16.30;11.00;;;;;;;-1.09;100.00;100166.69;108631;1251;1002782;-75
2023/02/28 01:33:59;;;;;;;19.60;11.40;;;;;;;-1.13;100.00;100163.20;109545;1250;59999;-76
2023/02/28 01:36:26;;;;;;;21.40;12.50;;;;;;;-1.17;100.00;100162.85;109548;1251;64764;-75
2023/02/28 01:38:53;;;;;;;18.20;12.40;;;;;;;-1.22;100.00;100156.58;109546;1251;59066;-76
2023/02/28 01:41:23;;;;;;;19.30;11.90;;;;;;;-1.28;100.00;100157.27;109485;1251;58851;-75
2023/02/28 01:43:49;;;;;;;;;;;;;;;-1.32;100.00;100155.89;109506;1251;66864;-76
2023/02/28 01:46:16;;;;;;;14.80;10.90;;;;;;;-1.37;100.00;100157.27;109521;1251;59077;-75
2023/02/28 01:48:50;;;;;;;15.90;11.50;;;;;;;-1.42;100.00;100157.98;109543;1251;64771;-76
2023/02/28 01:51:22;;;;;;;18.70;10.00;;;;;;;-1.45;100.00;100158.67;109507;1251;58914;-75
2023/02/28 01:53:55;;;;;;;16.00;9.80;;;;;;;-1.46;100.00;100156.06;109535;1251;58911;-75
2023/02/28 01:56:27;;;;;;;15.20;10.70;;;;;;;-1.49;100.00;100151.52;109523;1251;67002;-76
2023/02/28 01:58:55;;;;;;;17.80;10.90;;;;;;;-1.53;100.00;100151.70;109606;1251;59963;-75
2023/02/28 02:01:25;;;;;;;19.00;11.70;;;;;;;-1.56;100.00;100158.30;109504;1251;65230;-75
2023/02/28 02:03:56;;;;;;;;;;;;;;;-1.60;100.00;100155.34;109339;1251;59039;-75
2023/02/28 02:06:27;;;;;;;15.60;11.00;;;;;;;-1.64;100.00;100157.09;109506;1251;59040;-75
2023/02/28 02:08:54;;;;;;;17.20;10.50;;;;;;;-1.68;100.00;100161.25;108759;1251;1002509;-75
2023/02/28 02:11:24;;;;;;;19.00;11.60;;;;;;;-1.70;100.00;100162.13;109544;1251;60785;-74
2023/02/28 02:14:20;;;;;;;20.50;12.30;;;;;;;-1.71;100.00;100166.14;109478;1251;65150;-75
2023/02/28 02:17:11;;;;;;;19.10;11.60;;;;;;;-1.75;100.00;100159.85;109560;1251;58939;-74
2023/02/28 02:20:01;;;;;;;16.90;12.60;;;;;;;-1.79;100.00;100154.79;109530;1251;59001;-75
2023/02/28 02:22:47;;;;;;;;;;;;;;;-1.83;100.00;100155.31;109558;1251;65759;-74
2023/02/28 02:25:49;;;;;;;16.40;11.00;;;;;;;-1.84;100.00;100153.57;109540;1251;61338;-74
2023/02/28 02:28:57;;;;;;;16.80;11.30;;;;;;;-1.83;100.00;100153.92;108967;1258;65043;-74
2023/02/28 02:31:42;;;;;;;19.70;12.10;;;;;;;-1.82;100.00;100153.58;108815;1257;58983;-75
2023/02/28 02:34:28;;;;;;;19.00;11.80;;;;;;;-1.82;100.00;100154.45;108979;1257;59067;-74
2023/02/28 02:37:16;;;;;;;20.40;12.70;;;;;;;-1.81;100.00;100150.45;109001;1257;65790;-74
2023/02/28 02:40:07;;;;;;;17.70;11.70;;;;;;;-1.79;100.00;100154.45;108966;1257;60005;-74
2023/02/28 02:42:46;;;;;;;18.60;13.30;;;;;;;-1.78;100.00;100150.27;108983;1257;64738;-74
2023/02/28 02:45:23;;;;;;;21.80;12.30;;;;;;;-1.77;100.00;100149.23;108998;1257;59149;-74
2023/02/28 02:47:51;;;;;;;17.50;12.30;;;;;;;-1.76;100.00;100146.80;109022;1257;59147;-74
2023/02/28 02:50:29;;;;;;;18.00;11.30;;;;;;;-1.73;100.00;100150.98;109041;1257;67286;-74
2023/02/28 02:53:00;;;;;;;18.70;12.60;;;;;;;-1.74;100.00;100149.93;108879;1258;60090;-74
2023/02/28 02:55:28;;;;;;;18.80;11.90;;;;;;;-1.75;100.00;100150.98;109016;1258;65202;-75
2023/02/28 02:58:01;;;;;;;18.90;12.40;;;;;;;-1.77;100.00;100149.23;108972;1258;59128;-75
2023/02/28 03:00:55;;;;;;;20.40;11.30;;;;;;;-1.78;100.00;100152.89;108967;1258;59427;-75
2023/02/28 03:03:28;;;;;;;17.20;11.20;;;;;;;-1.79;100.00;100152.88;109088;1251;67109;-75
2023/02/28 03:06:00;;;;;;;16.10;11.10;;;;;;;-1.80;100.00;100156.36;109580;1251;60033;-75
2023/02/28 03:08:33;;;;;;;20.10;12.10;;;;;;;-1.81;100.00;100155.48;109554;1251;64821;-75
2023/02/28 03:11:07;;;;;;;17.60;11.80;;;;;;;-1.82;100.00;100156.89;109531;1250;58932;-75
2023/02/28 03:13:33;;;;;;;21.20;12.40;;;;;;;-1.84;100.00;100153.39;109535;1251;59345;-76
2023/02/28 03:16:28;;;;;;;25.40;12.70;;;;;;;-1.87;100.00;100154.96;109554;1251;66762;-75
2023/02/28 03:19:13;;;;;;;20.40;11.30;;;;;;;-1.92;100.00;100150.23;109188;1251;60266;-75
2023/02/28 03:21:55;;;;;;;19.10;11.50;;;;;;;-1.99;100.00;100142.91;109489;1251;65246;-76
2023/02/28 03:24:33;;;;;;;20.80;11.90;;;;;;;-2.06;100.00;100146.90;109517;1250;59042;-75
2023/02/28 03:27:19;;;;;;;21.40;12.90;;;;;;;-2.13;100.00;100150.02;109529;1251;58859;-75
2023/02/28 03:29:58;;;;;;;21.10;11.70;;;;;;;-2.19;100.00;100155.91;109547;1251;65795;-76
2023/02/28 03:32:36;;;;;;;18.60;11.60;;;;;;;-2.25;100.00;100153.80;109507;1250;61107;-75
2023/02/28 03:35:14;;;;;;;18.10;12.80;;;;;;;-2.32;100.00;100154.30;109552;1251;64715;-75
2023/02/28 03:37:44;;;;;;;19.90;13.60;;;;;;;-2.37;100.00;100161.08;109356;1251;58961;-76
2023/02/28 03:40:20;;;;;;;22.90;15.10;;;;;;;-2.42;100.00;100164.19;109358;1251;59037;-76
2023/02/28 03:42:50;;;;;;;20.10;14.40;;;;;;;-2.48;100.00;100167.48;109582;1251;66823;-75
2023/02/28 03:45:22;;;;;;;18.80;14.70;;;;;;;-2.53;100.00;100167.44;109576;1251;61151;-75
2023/02/28 03:47:58;;;;;;;25.40;15.80;;;;;;;-2.58;100.00;100166.36;109609;1251;64745;-75
2023/02/28 03:50:34;;;;;;;22.30;16.80;;;;;;;-2.64;100.00;100168.60;109573;1251;58966;-75
2023/02/28 03:53:32;;;;;;;23.70;16.30;;;;;;;-2.69;100.00;100170.31;109352;1251;59779;-75
2023/02/28 03:56:11;;;;;;;22.70;15.50;;;;;;;-2.73;100.00;100172.55;109542;1251;66979;-76
2023/02/28 03:58:47;;;;;;;25.00;17.40;;;;;;;-2.77;100.00;100176.35;109550;1251;59785;-76
2023/02/28 04:01:23;;;;;;;27.80;19.40;;;;;;;-2.80;100.00;100178.23;109531;1251;63768;-75
2023/02/28 04:03:50;;;;;;;27.80;18.70;;;;;;;-2.84;100.00;100181.01;109549;1251;58966;-75
2023/02/28 04:06:21;;;;;;;26.10;18.50;;;;;;;-2.86;100.00;100186.20;109531;1251;59173;-75
2023/02/28 04:08:49;;;;;;;24.40;17.90;;;;;;;-2.89;100.00;100192.63;109363;1251;68123;-75
2023/02/28 04:11:39;;;;;;;25.90;17.40;;;;;;;-2.92;100.00;100194.00;109574;1251;61250;-76
2023/02/28 04:14:07;;;;;;;26.00;17.10;;;;;;;-2.95;100.00;100196.74;109519;1251;64053;-75
2023/02/28 04:16:37;;;;;;;25.70;17.60;;;;;;;-2.99;100.00;100193.77;109545;1251;58941;-76
2023/02/28 04:19:08;;;;;;;22.70;17.60;;;;;;;-3.02;100.00;100193.58;109546;1251;59016;-75
2023/02/28 04:21:43;;;;;;;26.90;19.00;;;;;;;-3.04;100.00;100197.39;109478;1253;66708;-76
2023/02/28 04:24:15;;;;;;;27.60;17.40;;;;;;;-3.05;100.00;100198.58;109539;1251;61350;-75
2023/02/28 04:26:44;;;;;;;27.40;18.90;;;;;;;-3.07;100.00;100199.10;109534;1250;64047;-76
2023/02/28 04:29:17;;;;;;;27.70;18.50;;;;;;;-3.09;100.00;100200.12;109527;1251;59258;-76
2023/02/28 04:31:44;;;;;;;24.30;18.50;;;;;;;-3.10;100.00;100194.38;109401;1251;59017;-75
2023/02/28 04:34:10;;;;;;;30.00;18.80;;;;;;;-3.11;100.00;100196.83;109539;1251;66760;-76
2023/02/28 04:36:37;;;;;;;26.90;18.90;;;;;;;-3.11;100.00;100201.16;109549;1252;60747;-75
2023/02/28 04:39:03;;;;;;;27.10;17.30;;;;;;;-3.12;100.00;100200.63;109602;1251;64034;-76
2023/02/28 04:41:30;;;;;;;24.60;18.10;;;;;;;-3.13;100.00;100202.02;109218;1251;58996;-76
2023/02/28 04:43:57;;;;;;;24.80;18.80;;;;;;;-3.14;100.00;100201.30;109490;1251;59247;-75
2023/02/28 04:46:24;;;;;;;25.60;17.40;;;;;;;-3.15;100.00;100198.34;109601;1251;66652;-76
2023/02/28 04:48:50;;;;;;;21.70;16.30;;;;;;;-3.16;100.00;100200.95;108813;1251;1002504;-75
2023/02/28 04:51:18;;;;;;;23.20;16.60;;;;;;;-3.18;100.00;100201.63;109579;1251;59026;-76
2023/02/28 04:53:46;;;;;;;20.10;16.40;;;;;;;-3.19;100.00;100200.73;109354;1251;59005;-75
2023/02/28 04:56:14;;;;;;;26.10;17.70;;;;;;;-3.21;100.00;100199.16;109550;1251;59237;-76
2023/02/28 04:58:41;;;;;;;26.60;18.90;;;;;;;-3.23;100.00;100197.94;109352;1251;67100;-75
2023/02/28 05:01:19;;;;;;;26.90;17.80;;;;;;;-3.26;100.00;100200.52;109428;1251;61171;-76
2023/02/28 05:03:46;;;;;;;26.20;17.70;;;;;;;-3.27;100.00;100199.98;109521;1251;65074;-76
2023/02/28 05:06:13;;;;;;;27.60;18.20;;;;;;;-3.29;100.00;100202.05;109515;1251;59031;-76
2023/02/28 05:08:40;;;;;;;30.30;18.60;;;;;;;-3.31;100.00;100199.43;109287;1251;59272;-76
2023/02/28 05:11:18;;;;;;;27.30;18.90;;;;;;;-3.33;100.00;100203.59;109240;1251;67147;-76
2023/02/28 05:13:45;;;;;;;23.70;19.20;;;;;;;-3.35;100.00;100204.42;109559;1250;60743;-75
2023/02/28 05:16:11;;;;;;;28.80;18.90;;;;;;;-3.37;100.00;100206.49;109477;1251;64678;-76
2023/02/28 05:18:39;;;;;;;28.70;20.70;;;;;;;-3.38;100.00;100209.27;109396;1251;59041;-75
2023/02/28 05:21:06;;;;;;;32.10;21.60;;;;;;;-3.38;100.00;100208.21;109568;1251;59084;-76
2023/02/28 05:23:32;;;;;;;33.60;21.20;;;;;;;-3.39;100.00;100208.58;109515;1251;66221;-76
2023/02/28 05:25:59;;;;;;;25.70;20.90;;;;;;;-3.38;100.00;100209.09;109554;1250;59808;-75
2023/02/28 05:28:26;;;;;;;27.00;20.90;;;;;;;-3.38;100.00;100210.31;109559;1251;64984;-76
2023/02/28 05:30:52;;;;;;;28.10;19.80;;;;;;;-3.39;100.00;100213.26;109548;1251;59013;-75
2023/02/28 05:33:19;;;;;;;30.90;20.40;;;;;;;-3.40;100.00;100215.16;109539;1251;59107;-76
2023/02/28 05:35:45;;;;;;;31.60;22.60;;;;;;;-3.41;100.00;100218.27;109550;1251;66692;-75
2023/02/28 05:38:12;;;;;;;30.30;21.80;;;;;;;-3.42;100.00;100221.73;108804;1250;1002767;-75
2023/02/28 05:40:40;;;;;;;33.60;21.10;;;;;;;-3.42;100.00;100226.09;109526;1251;65124;-75
2023/02/28 05:43:10;;;;;;;29.50;21.20;;;;;;;-3.41;100.00;100233.39;108726;1251;1002430;-76
2023/02/28 05:45:37;;;;;;;31.00;21.80;;;;;;;-3.41;100.00;100231.31;109542;1251;59020;-77
2023/02/28 05:48:03;;;;;;;29.60;20.70;;;;;;;-3.40;100.00;100233.56;109574;1251;66062;-76
2023/02/28 05:50:30;;;;;;;32.00;21.00;;;;;;;-3.39;100.00;100237.92;109557;1251;60184;-76
2023/02/28 05:52:57;;;;;;;30.70;21.60;;;;;;;-3.39;100.00;100236.36;109258;1251;63814;-77
2023/02/28 05:55:23;;;;;;;30.40;20.90;;;;;;;-3.37;100.00;100241.77;108748;1251;1002038;-75
2023/02/28 05:57:50;;;;;;;30.10;21.40;;;;;;;-3.34;100.00;100247.36;108778;1251;1002643;-76
2023/02/28 06:00:17;;;;;;;29.00;21.20;;;;;;;-3.32;100.00;100249.30;108786;1251;1002223;-76
2023/02/28 06:02:44;;;;;;;31.40;20.10;;;;;;;-3.27;100.00;100250.55;108795;1251;1002276;-76
2023/02/28 06:05:15;;;;;;;31.10;20.30;;;;;;;-3.23;100.00;100251.63;109520;1251;64205;-76
2023/02/28 06:07:42;;;;;;;29.20;19.30;;;;;;;-3.17;100.00;100252.73;109139;1251;59033;-76
2023/02/28 06:10:13;;;;;;;27.30;19.30;;;;;;;-3.13;100.00;100248.95;109593;1251;59097;-76
2023/02/28 06:12:41;;;;;;;27.70;19.70;;;;;;;-3.09;100.00;100254.54;109556;1251;67173;-76
2023/02/28 06:15:17;;;;;;;27.60;19.20;;;;;;;-3.04;100.00;100257.70;109573;1251;60231;-76
2023/02/28 06:17:44;;;;;;;26.90;19.30;;;;;;;-3.01;100.00;100258.43;109564;1251;64315;-77
2023/02/28 06:20:14;;;;;;;24.80;18.30;;;;;;;-2.97;100.00;100261.41;109502;1251;58976;-77
2023/02/28 06:22:41;;;;;;;31.20;20.10;;;;;;;-2.94;100.00;100263.17;109579;1251;58971;-75
2023/02/28 06:25:09;;;;;;;31.00;20.20;;;;;;;-2.93;100.00;100262.16;109561;1251;65856;-76
2023/02/28 06:27:36;;;;;;;30.20;19.90;;;;;;;-2.90;100.00;100260.44;109555;1251;61154;-76
2023/02/28 06:30:03;;;;;;;36.90;21.20;;;;;;;-2.87;100.00;100261.31;109567;1251;65132;-77
2023/02/28 06:32:29;;;;;;;29.10;18.80;;;;;;;-2.84;100.00;100268.30;109544;1251;58840;-77
2023/02/28 06:34:57;;;;;;;24.70;18.70;;;;;;;-2.81;100.00;100269.02;109599;1251;59236;-74
2023/02/28 06:37:27;;;;;;;27.60;18.00;;;;;;;-2.78;100.00;100272.17;108761;1251;1003148;-76
2023/02/28 06:39:55;;;;;;;25.20;17.60;;;;;;;-2.75;100.00;100271.85;109286;1251;61169;-77
2023/02/28 06:42:28;;;;;;;25.70;15.90;;;;;;;-2.70;100.00;100271.19;109476;1251;63779;-77
2023/02/28 06:44:55;;;;;;;28.40;17.30;;;;;;;-2.67;100.00;100271.21;109469;1251;58978;-77
2023/02/28 06:47:22;;;;;;;27.50;16.80;;;;;;;-2.63;100.00;100275.23;109525;1251;58970;-77
2023/02/28 06:49:49;;;;;;;24.90;16.00;;;;;;;-2.59;100.00;100278.92;109501;1251;66125;-76
2023/02/28 06:52:16;;;;;;;22.00;15.20;;;;;;;-2.55;100.00;100283.30;109594;1251;61257;-76
2023/02/28 06:54:42;;;;;;;27.40;17.20;;;;;;;-2.51;100.00;100283.85;108803;1251;1002482;-77
2023/02/28 06:57:09;;;;;;;26.10;18.80;;;;;;;-2.47;100.00;100281.27;109536;1251;59061;-77
2023/02/28 06:59:36;;;;;;;33.50;20.40;;;;;;;-2.44;100.00;100283.02;109515;1256;59104;-77
2023/02/28 07:02:02;;;;;;;27.90;18.60;;;;;;;-2.40;100.00;100284.78;109604;1252;59321;-77
2023/02/28 07:04:31;;;;;;;29.00;19.00;;;;;;;-2.38;100.00;100289.50;109554;1251;60690;-77
2023/02/28 07:06:57;;;;;;;30.20;18.90;;;;;;;-2.35;100.00;100289.86;109536;1251;64042;-76
2023/02/28 07:09:29;;;;;;;28.20;18.10;;;;;;;-2.32;100.00;100293.20;109522;1253;58910;-77
2023/02/28 07:11:56;;;;;;;27.60;18.10;;;;;;;-2.28;100.00;100294.27;109615;1251;58898;-76
2023/02/28 07:14:23;;;;;;;26.40;18.00;;;;;;;-2.24;100.00;100289.94;109627;1251;66786;-77
2023/02/28 07:16:50;;;;;;;25.40;17.30;;;;;;;-2.19;100.00;100289.79;109605;1250;60135;-77
2023/02/28 07:19:16;;;;;;;23.80;17.00;;;;;;;-2.14;100.00;100291.73;109558;1251;65065;-77
2023/02/28 07:21:43;;;;;;;22.20;17.40;;;;;;;-2.07;100.00;100294.02;109540;1251;59544;-76
2023/02/28 07:24:10;;;;;;;22.80;16.60;;;;;;;-2.00;100.00;100296.52;109621;1251;59065;-77
2023/02/28 07:26:36;;;;;;;32.60;18.80;;;;;;;-1.92;100.00;100300.38;109575;1251;66953;-77
2023/02/28 07:29:04;;;;;;;28.90;18.50;;;;;;;-1.84;100.00;100298.85;109584;1251;59879;-77
2023/02/28 07:31:30;;;;;;;26.40;18.70;;;;;;;-1.75;100.00;100299.58;109413;1251;62668;-78
2023/02/28 07:33:57;;;;;;;27.00;18.60;;;;;;;-1.64;100.00;100303.63;109560;1253;58951;-75
2023/02/28 07:36:24;;;;;;;30.30;18.90;;;;;;;-1.53;100.00;100303.30;108796;1251;1002556;-75
2023/02/28 07:38:51;;;;;;;30.80;19.80;;;;;;;-1.42;100.00;100302.64;109181;1251;66872;-75
2023/02/28 07:41:20;;;;;;;31.40;18.80;;;;;;;-1.30;100.00;100303.19;109638;1251;61265;-76
2023/02/28 07:43:46;;;;;;;27.90;18.70;;;;;;;-1.19;100.00;100306.88;109550;1251;64006;-75
2023/02/28 07:46:15;;;;;;;31.40;19.10;;;;;;;-1.07;100.00;100304.29;109553;1251;58944;-76
2023/02/28 07:48:43;;;;;;;31.30;19.30;;;;;;;-0.96;100.00;100305.16;109387;1251;59178;-76
2023/02/28 07:51:10;;;;;;;28.00;20.10;;;;;;;-0.81;100.00;100303.61;109527;1251;64796;-75
2023/02/28 07:53:37;;;;;;;27.00;18.40;;;;;;;-0.64;100.00;100301.52;109459;1251;60167;-75
2023/02/28 07:56:04;;;;;;;26.90;18.60;;;;;;;-0.49;100.00;100300.98;109516;1251;65077;-74
2023/02/28 07:58:31;;;;;;;25.90;18.60;;;;;;;-0.34;100.00;100303.06;109277;1251;59023;-75
2023/02/28 08:01:08;;;;;;;29.30;19.80;;;;;;;-0.16;100.00;100301.98;109257;1251;59057;-75
2023/02/28 08:03:35;;;;;;;28.90;19.90;;;;;;;0.06;100.00;100299.11;109451;1251;66234;-75
2023/02/28 08:06:04;;;;;;;25.80;18.40;;;;;;;0.28;100.00;100297.29;109547;1251;60184;-76
2023/02/28 08:08:31;;;;;;;26.50;18.80;;;;;;;0.46;100.00;100294.23;109548;1251;65207;-77
2023/02/28 08:11:00;;;;;;;25.70;17.50;;;;;;;0.60;100.00;100295.21;109552;1251;59008;-76
2023/02/28 08:13:28;;;;;;;24.00;17.70;;;;;;;0.68;100.00;100295.69;109550;1251;59045;-77
2023/02/28 08:15:56;;;;;;;28.20;17.80;;;;;;;0.78;100.00;100294.05;109193;1251;1002466;-75
2023/02/28 08:18:23;;;;;;;23.50;16.80;;;;;;;0.97;100.00;100292.89;109527;1250;60815;-75
2023/02/28 08:20:50;;;;;;;21.80;16.30;;;;;;;1.17;100.00;100291.86;109523;1251;63708;-75
2023/02/28 08:23:16;;;;;;;18.50;15.20;;;;;;;1.40;100.00;100291.65;109546;1251;58934;-75
2023/02/28 08:25:43;;;;;;;24.10;16.20;;;;;;;1.57;100.00;100294.84;109236;1253;59118;-76
2023/02/28 08:28:10;;;;;;;19.90;14.10;;;;;;;1.69;100.00;100292.61;109368;1251;65989;-76
2023/02/28 08:30:36;;;;;;;22.30;15.30;;;;;;;1.77;100.00;100289.20;109558;1251;59934;-76
2023/02/28 08:33:03;;;;;;;23.30;14.90;;;;;;;1.83;100.00;100288.80;109560;1251;62728;-76
2023/02/28 08:35:30;;;;;;;19.90;14.40;;;;;;;1.86;100.00;100290.34;109496;1251;59015;-76
2023/02/28 08:37:57;;;;;;;19.40;14.00;;;;;;;1.91;100.00;100287.67;109618;1251;59088;-76
2023/02/28 08:40:24;;;;;;;21.60;15.30;;;;;;;2.01;99.93;100292.29;109417;1251;66971;-75
2023/02/28 08:42:50;;;;;;;21.40;15.00;;;;;;;2.08;96.31;100293.95;109608;1251;61210;-75
2023/02/28 08:45:17;;;;;;;19.80;14.30;;;;;;;2.08;95.87;100292.73;109537;1251;65875;-76
2023/02/28 08:47:44;;;;;;;21.10;14.10;;;;;;;2.13;96.04;100290.75;109514;1251;58943;-75
2023/02/28 08:50:10;;;;;;;20.20;14.00;;;;;;;2.24;94.88;100289.03;109594;1253;58995;-75
2023/02/28 08:52:38;;;;;;;19.50;14.80;;;;;;;2.31;94.40;100285.44;109546;1252;67215;-76
2023/02/28 08:55:05;;;;;;;19.60;14.70;;;;;;;2.29;91.98;100283.55;109591;1251;59864;-75
2023/02/28 08:57:32;;;;;;;21.50;17.50;;;;;;;2.22;90.91;100285.55;109518;1251;64693;-75
2023/02/28 08:59:59;;;;;;;19.80;14.50;;;;;;;2.27;92.08;100288.82;109249;1253;59345;-76
2023/02/28 09:02:26;;;;;;;20.20;14.30;;;;;;;2.44;93.03;100287.91;109595;1251;58991;-76
2023/02/28 09:04:53;;;;;;;16.50;13.50;;;;;;;2.65;89.82;100287.10;109582;1251;67417;-75
2023/02/28 09:07:19;;;;;;;22.80;16.60;;;;;;;2.79;88.71;100286.20;109567;1251;61094;-75
2023/02/28 09:09:54;;;;;;;15.10;12.40;;;;;;;2.90;86.97;100288.14;109513;1251;64934;-75
2023/02/28 09:12:23;;;;;;;15.70;13.00;;;;;;;2.92;85.78;100292.67;109557;1251;59337;-75
2023/02/28 09:14:50;;;;;;;15.20;11.30;;;;;;;2.93;83.20;100290.37;109584;1252;59099;-75
2023/02/28 09:17:18;;;;;;;14.00;11.80;;;;;;;2.94;84.74;100288.79;109565;1251;65831;-75
2023/02/28 09:19:44;;;;;;;16.20;12.30;;;;;;;3.05;84.96;100287.90;109628;1250;60213;-75
2023/02/28 09:22:11;;;;;;;16.00;10.80;;;;;;;3.18;83.57;100289.30;109540;1251;65234;-75
2023/02/28 09:24:38;;;;;;;15.50;10.40;;;;;;;3.17;80.14;100288.08;109563;1251;58938;-75
2023/02/28 09:27:05;;;;;;;14.80;11.10;;;;;;;3.16;81.40;100286.87;109612;1251;59006;-75
2023/02/28 09:29:33;;;;;;;18.20;12.00;;;;;;;3.21;80.38;100284.34;109442;1251;66388;-75
2023/02/28 09:32:01;;;;;;;13.60;9.90;;;;;;;3.17;78.45;100284.58;109498;1251;60822;-75
2023/02/28 09:34:31;;;;;;;12.10;9.60;;;;;;;3.05;76.66;100288.09;109543;1251;65064;-75
2023/02/28 09:36:58;;;;;;;12.00;9.80;;;;;;;3.06;77.90;100291.41;109531;1255;58994;-75
2023/02/28 09:39:26;;;;;;;14.10;11.50;;;;;;;3.13;78.32;100286.38;109423;1251;59129;-75
2023/02/28 09:41:55;;;;;;;13.50;10.40;;;;;;;3.20;78.66;100288.20;109567;1251;66136;-75
2023/02/28 09:44:37;;;;;;;13.80;10.30;;;;;;;3.23;76.25;100289.03;109632;1251;60160;-76
2023/02/28 09:47:25;;;;;;;20.20;12.80;;;;;;;3.33;77.49;100284.66;109621;1251;65229;-75
2023/02/28 09:49:51;;;;;;;19.30;13.10;;;;;;;3.43;77.03;100282.55;109539;1251;58834;-75
2023/02/28 09:52:24;;;;;;;18.20;11.90;;;;;;;3.46;77.22;100279.52;109554;1251;58841;-75
2023/02/28 09:54:50;;;;;;;13.60;10.10;;;;;;;3.54;77.97;100282.55;109552;1251;67014;-75
2023/02/28 09:57:35;;;;;;;14.00;11.30;;;;;;;3.66;77.15;100282.15;109572;1251;59827;-76
2023/02/28 10:00:10;;;;;;;13.40;11.40;;;;;;;3.79;77.67;100281.58;109234;1251;64818;-75
2023/02/28 10:02:42;;;;;;;13.70;11.90;;;;;;;3.96;78.60;100284.95;109543;1252;59227;-76
2023/02/28 10:05:15;;;;;;;17.50;12.40;;;;;;;4.14;78.41;100283.02;109455;1252;59037;-74
2023/02/28 10:07:54;;;;;;;15.90;12.70;;;;;;;4.20;77.24;100287.27;109214;1251;66390;-75
2023/02/28 10:10:27;;;;;;;27.60;19.40;;;;;;;4.22;76.78;100293.75;109541;1251;60140;-75
2023/02/28 10:12:58;;;;;;;78.20;41.40;;;;;;;4.20;76.12;100292.38;109549;1251;65112;-76
2023/02/28 10:15:29;;;;;;;45.10;28.30;;;;;;;4.11;75.50;100296.96;109535;1251;58986;-76
2023/02/28 10:18:02;;;;;;;30.70;21.90;;;;;;;3.99;76.04;100300.35;109590;1251;59010;-75
2023/02/28 10:20:33;;;;;;;20.60;17.40;;;;;;;3.92;76.05;100300.48;109476;1251;67157;-76
2023/02/28 10:23:07;;;;;;;17.80;14.80;;;;;;;3.79;77.11;100299.67;109578;1252;60787;-75
2023/02/28 10:25:36;;;;;;;18.20;13.00;;;;;;;3.64;77.08;100298.88;109559;1251;64185;-75
2023/02/28 10:28:12;;;;;;;18.00;13.90;;;;;;;3.58;76.35;100299.17;109545;1251;59236;-75
2023/02/28 10:30:43;;;;;;;16.80;13.50;;;;;;;3.32;76.16;100291.87;109247;1251;59044;-76
2023/02/28 10:33:19;;;;;;;19.30;14.90;;;;;;;3.04;76.97;100293.54;109561;1251;67066;-75
2023/02/28 10:35:47;;;;;;;16.90;13.40;;;;;;;2.87;77.49;100290.29;109539;1251;60721;-75
2023/02/28 10:38:20;;;;;;;18.20;14.90;;;;;;;2.77;77.78;100290.27;109570;1251;65188;-75
2023/02/28 10:40:48;;;;;;;15.30;13.60;;;;;;;2.67;78.40;100287.42;109473;1253;59378;-75
2023/02/28 10:43:15;;;;;;;16.20;12.50;;;;;;;2.60;78.61;100284.36;109571;1251;59010;-75
2023/02/28 10:45:58;;;;;;;16.10;12.10;;;;;;;2.53;78.52;100281.83;109541;1251;67012;-75
2023/02/28 10:48:30;;;;;;;15.90;12.60;;;;;;;2.52;78.86;100283.25;109582;1251;61531;-75
2023/02/28 10:50:58;;;;;;;14.00;12.30;;;;;;;2.56;78.50;100284.23;109286;1251;286567;-75
2023/02/28 10:53:37;;;;;;;17.20;13.10;;;;;;;2.59;78.52;100277.34;109507;1253;58909;-75
2023/02/28 10:56:13;;;;;;;17.30;13.60;;;;;;;2.57;78.41;100277.73;109522;1252;58995;-75
2023/02/28 10:59:01;;;;;;;15.30;11.90;;;;;;;2.54;78.40;100276.89;109342;1251;65907;-75
2023/02/28 11:01:45;;;;;;;16.10;12.30;;;;;;;2.61;78.38;100272.76;109448;1251;61312;-75
2023/02/28 11:04:19;;;;;;;16.20;11.00;;;;;;;2.66;78.69;100272.71;109553;1251;64033;-75
2023/02/28 11:06:46;;;;;;;15.50;10.70;;;;;;;2.65;78.77;100267.80;109494;1251;59024;-75
2023/02/28 11:09:30;;;;;;;18.00;11.50;;;;;;;2.60;78.12;100269.96;109566;1251;59049;-75
2023/02/28 11:11:57;;;;;;;18.30;11.10;;;;;;;2.47;77.61;100268.92;109200;1251;66617;-75